sensor_id;sensor_type;location;lat;lon;timestamp;pressure;altitude;pressure_sealevel;temperature;humidity
16613;BME280;8419;52.358;9.752;2022-07-01T00:01:42;100459.00;;;31.97;37.36
16613;BME280;8419;52.358;9.752;2022-07-01T00:04:27;100466.00;;;32.04;37.28
16613;BME280;8419;52.358;9.752;2022-07-01T00:07:13;100472.00;;;32.08;37.25
16613;BME280;8419;52.358;9.752;2022-07-01T00:09:59;100489.00;;;32.08;37.29
16613;BME280;8419;52.358;9.752;2022-07-01T00:12:44;100486.00;;;31.97;37.44
16613;BME280;8419;52.358;9.752;2022-07-01T00:15:29;100493.00;;;31.96;37.38
16613;BME280;8419;52.358;9.752;2022-07-01T00:18:15;100498.00;;;31.89;37.54
16613;BME280;8419;52.358;9.752;2022-07-01T00:21:00;100497.00;;;31.84;37.46
16613;BME280;8419;52.358;9.752;2022-07-01T00:23:46;100496.00;;;31.70;37.55
16613;BME280;8419;52.358;9.752;2022-07-01T00:26:32;100504.00;;;31.53;37.70
16613;BME280;8419;52.358;9.752;2022-07-01T00:29:17;100507.00;;;31.37;37.81
16613;BME280;8419;52.358;9.752;2022-07-01T00:32:03;100502.00;;;31.32;37.72
16613;BME280;8419;52.358;9.752;2022-07-01T00:34:49;100502.00;;;31.34;37.64
16613;BME280;8419;52.358;9.752;2022-07-01T00:37:34;100513.00;;;31.14;37.96
16613;BME280;8419;52.358;9.752;2022-07-01T00:40:20;100523.00;;;30.99;38.20
16613;BME280;8419;52.358;9.752;2022-07-01T00:43:05;100527.00;;;31.01;38.07
16613;BME280;8419;52.358;9.752;2022-07-01T00:45:51;100527.00;;;30.98;38.03
16613;BME280;8419;52.358;9.752;2022-07-01T00:48:37;100525.00;;;30.88;38.06
16613;BME280;8419;52.358;9.752;2022-07-01T00:51:23;100531.00;;;30.82;38.10
16613;BME280;8419;52.358;9.752;2022-07-01T00:54:08;100526.00;;;30.79;38.03
16613;BME280;8419;52.358;9.752;2022-07-01T00:56:54;100529.00;;;30.87;37.71
16613;BME280;8419;52.358;9.752;2022-07-01T00:59:41;100511.00;;;30.67;38.06
16613;BME280;8419;52.358;9.752;2022-07-01T01:02:26;100515.00;;;30.56;38.20
16613;BME280;8419;52.358;9.752;2022-07-01T01:05:12;100519.00;;;30.57;38.25
16613;BME280;8419;52.358;9.752;2022-07-01T01:07:57;100514.00;;;30.42;38.47
16613;BME280;8419;52.358;9.752;2022-07-01T01:10:43;100531.00;;;30.19;38.81
16613;BME280;8419;52.358;9.752;2022-07-01T01:13:28;100526.00;;;30.07;39.03
16613;BME280;8419;52.358;9.752;2022-07-01T01:16:18;100553.00;;;30.02;39.16
16613;BME280;8419;52.358;9.752;2022-07-01T01:19:05;100554.00;;;29.92;39.22
16613;BME280;8419;52.358;9.752;2022-07-01T01:21:51;100567.00;;;29.92;39.14
16613;BME280;8419;52.358;9.752;2022-07-01T01:24:37;100571.00;;;29.69;39.47
16613;BME280;8419;52.358;9.752;2022-07-01T01:27:22;100565.00;;;29.61;39.49
16613;BME280;8419;52.358;9.752;2022-07-01T01:30:10;100582.00;;;29.42;39.73
16613;BME280;8419;52.358;9.752;2022-07-01T01:32:56;100576.00;;;29.37;39.69
16613;BME280;8419;52.358;9.752;2022-07-01T01:35:42;100570.00;;;29.28;39.67
16613;BME280;8419;52.358;9.752;2022-07-01T01:38:27;100568.00;;;29.17;39.67
16613;BME280;8419;52.358;9.752;2022-07-01T01:41:13;100562.00;;;29.10;39.57
16613;BME280;8419;52.358;9.752;2022-07-01T01:43:58;100579.00;;;29.17;39.37
16613;BME280;8419;52.358;9.752;2022-07-01T01:46:43;100567.00;;;29.11;39.41
16613;BME280;8419;52.358;9.752;2022-07-01T01:49:28;100564.00;;;29.03;39.51
16613;BME280;8419;52.358;9.752;2022-07-01T01:52:13;100569.00;;;28.98;39.57
16613;BME280;8419;52.358;9.752;2022-07-01T01:54:58;100570.00;;;28.93;39.60
16613;BME280;8419;52.358;9.752;2022-07-01T01:57:44;100582.00;;;28.83;39.79
16613;BME280;8419;52.358;9.752;2022-07-01T02:00:30;100605.00;;;28.88;39.73
16613;BME280;8419;52.358;9.752;2022-07-01T02:03:15;100609.00;;;28.83;39.76
16613;BME280;8419;52.358;9.752;2022-07-01T02:06:00;100616.00;;;28.82;39.82
16613;BME280;8419;52.358;9.752;2022-07-01T02:08:45;100608.00;;;27.59;42.17
16613;BME280;8419;52.358;9.752;2022-07-01T02:11:31;100612.00;;;27.32;42.86
16613;BME280;8419;52.358;9.752;2022-07-01T02:14:16;100615.00;;;27.36;42.67
16613;BME280;8419;52.358;9.752;2022-07-01T02:17:02;100612.00;;;28.12;41.16
16613;BME280;8419;52.358;9.752;2022-07-01T02:19:48;100608.00;;;28.36;40.49
16613;BME280;8419;52.358;9.752;2022-07-01T02:22:33;100618.00;;;28.27;40.57
16613;BME280;8419;52.358;9.752;2022-07-01T02:25:18;100620.00;;;28.14;40.81
16613;BME280;8419;52.358;9.752;2022-07-01T02:28:04;100613.00;;;28.08;40.84
16613;BME280;8419;52.358;9.752;2022-07-01T02:30:50;100606.00;;;27.99;40.95
16613;BME280;8419;52.358;9.752;2022-07-01T02:33:35;100633.00;;;28.04;40.89
16613;BME280;8419;52.358;9.752;2022-07-01T02:36:20;100633.00;;;28.05;40.72
16613;BME280;8419;52.358;9.752;2022-07-01T02:39:05;100637.00;;;28.15;40.52
16613;BME280;8419;52.358;9.752;2022-07-01T02:41:51;100635.00;;;28.13;40.44
16613;BME280;8419;52.358;9.752;2022-07-01T02:44:55;100631.00;;;28.06;40.49
16613;BME280;8419;52.358;9.752;2022-07-01T02:47:41;100642.00;;;28.21;39.94
16613;BME280;8419;52.358;9.752;2022-07-01T02:50:26;100632.00;;;28.24;39.79
16613;BME280;8419;52.358;9.752;2022-07-01T02:53:12;100656.00;;;28.29;39.60
16613;BME280;8419;52.358;9.752;2022-07-01T02:55:57;100662.00;;;28.23;39.67
16613;BME280;8419;52.358;9.752;2022-07-01T02:58:42;100686.00;;;28.11;39.81
16613;BME280;8419;52.358;9.752;2022-07-01T03:01:28;100658.00;;;28.04;39.85
16613;BME280;8419;52.358;9.752;2022-07-01T03:04:13;100655.00;;;28.12;39.59
16613;BME280;8419;52.358;9.752;2022-07-01T03:06:59;100653.00;;;28.06;39.56
16613;BME280;8419;52.358;9.752;2022-07-01T03:09:44;100670.00;;;28.11;39.43
16613;BME280;8419;52.358;9.752;2022-07-01T03:12:30;100682.00;;;28.13;39.30
16613;BME280;8419;52.358;9.752;2022-07-01T03:15:19;100694.00;;;27.82;39.85
16613;BME280;8419;52.358;9.752;2022-07-01T03:18:05;100713.00;;;28.05;39.32
16613;BME280;8419;52.358;9.752;2022-07-01T03:20:50;100722.00;;;28.17;38.97
16613;BME280;8419;52.358;9.752;2022-07-01T03:23:36;100729.00;;;28.21;38.84
16613;BME280;8419;52.358;9.752;2022-07-01T03:26:21;100725.00;;;28.02;39.05
16613;BME280;8419;52.358;9.752;2022-07-01T03:29:06;100730.00;;;28.05;38.93
16613;BME280;8419;52.358;9.752;2022-07-01T03:31:52;100751.00;;;27.93;39.10
16613;BME280;8419;52.358;9.752;2022-07-01T03:34:38;100748.00;;;27.71;39.47
16613;BME280;8419;52.358;9.752;2022-07-01T03:37:23;100749.00;;;27.64;39.72
16613;BME280;8419;52.358;9.752;2022-07-01T03:40:11;100769.00;;;27.60;39.78
16613;BME280;8419;52.358;9.752;2022-07-01T03:42:57;100777.00;;;27.65;39.68
16613;BME280;8419;52.358;9.752;2022-07-01T03:45:42;100786.00;;;27.44;39.92
16613;BME280;8419;52.358;9.752;2022-07-01T03:48:28;100794.00;;;27.36;39.91
16613;BME280;8419;52.358;9.752;2022-07-01T03:51:13;100793.00;;;27.29;39.89
16613;BME280;8419;52.358;9.752;2022-07-01T03:53:58;100787.00;;;27.25;39.85
16613;BME280;8419;52.358;9.752;2022-07-01T03:57:04;100787.00;;;27.28;39.68
16613;BME280;8419;52.358;9.752;2022-07-01T03:59:50;100788.00;;;27.08;39.93
16613;BME280;8419;52.358;9.752;2022-07-01T04:02:35;100777.00;;;26.94;40.11
16613;BME280;8419;52.358;9.752;2022-07-01T04:05:20;100793.00;;;26.83;40.19
16613;BME280;8419;52.358;9.752;2022-07-01T04:08:07;100791.00;;;26.84;40.19
16613;BME280;8419;52.358;9.752;2022-07-01T04:10:52;100802.00;;;26.79;40.31
16613;BME280;8419;52.358;9.752;2022-07-01T04:13:39;100796.00;;;26.78;40.24
16613;BME280;8419;52.358;9.752;2022-07-01T04:16:25;100799.00;;;26.64;40.57
16613;BME280;8419;52.358;9.752;2022-07-01T04:19:12;100808.00;;;26.66;40.56
16613;BME280;8419;52.358;9.752;2022-07-01T04:21:58;100801.00;;;26.53;40.95
16613;BME280;8419;52.358;9.752;2022-07-01T04:25:04;100805.00;;;26.25;41.60
16613;BME280;8419;52.358;9.752;2022-07-01T04:27:49;100798.00;;;26.16;42.02
16613;BME280;8419;52.358;9.752;2022-07-01T04:30:34;100805.00;;;26.27;41.90
16613;BME280;8419;52.358;9.752;2022-07-01T04:33:20;100806.00;;;26.20;42.15
16613;BME280;8419;52.358;9.752;2022-07-01T04:36:06;100804.00;;;26.28;42.01
16613;BME280;8419;52.358;9.752;2022-07-01T04:38:51;100789.00;;;26.35;42.09
16613;BME280;8419;52.358;9.752;2022-07-01T04:41:37;100782.00;;;26.39;42.06
16613;BME280;8419;52.358;9.752;2022-07-01T04:44:41;100791.00;;;26.37;42.10
16613;BME280;8419;52.358;9.752;2022-07-01T04:47:26;100798.00;;;26.47;41.94
16613;BME280;8419;52.358;9.752;2022-07-01T04:50:17;100794.00;;;26.51;41.85
16613;BME280;8419;52.358;9.752;2022-07-01T04:53:03;100816.00;;;26.64;41.65
16613;BME280;8419;52.358;9.752;2022-07-01T04:55:48;100810.00;;;26.74;41.50
16613;BME280;8419;52.358;9.752;2022-07-01T04:58:33;100818.00;;;26.72;41.58
16613;BME280;8419;52.358;9.752;2022-07-01T05:01:18;100825.00;;;26.76;41.56
16613;BME280;8419;52.358;9.752;2022-07-01T05:04:04;100818.00;;;26.93;41.25
16613;BME280;8419;52.358;9.752;2022-07-01T05:06:49;100817.00;;;26.94;41.28
16613;BME280;8419;52.358;9.752;2022-07-01T05:09:35;100825.00;;;27.06;41.11
16613;BME280;8419;52.358;9.752;2022-07-01T05:12:20;100822.00;;;27.17;41.02
16613;BME280;8419;52.358;9.752;2022-07-01T05:15:08;100829.00;;;27.18;40.97
16613;BME280;8419;52.358;9.752;2022-07-01T05:17:54;100823.00;;;27.16;40.87
16613;BME280;8419;52.358;9.752;2022-07-01T05:20:58;100823.00;;;27.18;40.75
16613;BME280;8419;52.358;9.752;2022-07-01T05:24:04;100813.00;;;27.18;40.55
16613;BME280;8419;52.358;9.752;2022-07-01T05:26:50;100814.00;;;27.17;40.53
16613;BME280;8419;52.358;9.752;2022-07-01T05:29:35;100817.00;;;27.22;40.43
16613;BME280;8419;52.358;9.752;2022-07-01T05:32:20;100821.00;;;27.37;40.03
16613;BME280;8419;52.358;9.752;2022-07-01T05:35:07;100823.00;;;27.45;39.74
16613;BME280;8419;52.358;9.752;2022-07-01T05:37:52;100815.00;;;27.50;39.54
16613;BME280;8419;52.358;9.752;2022-07-01T05:40:37;100811.00;;;27.59;39.39
16613;BME280;8419;52.358;9.752;2022-07-01T05:43:23;100816.00;;;27.43;39.58
16613;BME280;8419;52.358;9.752;2022-07-01T05:46:09;100831.00;;;27.47;39.40
16613;BME280;8419;52.358;9.752;2022-07-01T05:48:54;100852.00;;;27.40;39.46
16613;BME280;8419;52.358;9.752;2022-07-01T05:51:39;100851.00;;;27.52;39.26
16613;BME280;8419;52.358;9.752;2022-07-01T05:54:26;100861.00;;;27.33;39.31
16613;BME280;8419;52.358;9.752;2022-07-01T05:57:11;100862.00;;;27.25;39.41
16613;BME280;8419;52.358;9.752;2022-07-01T05:59:56;100882.00;;;27.25;39.34
16613;BME280;8419;52.358;9.752;2022-07-01T06:02:42;100885.00;;;27.25;39.27
16613;BME280;8419;52.358;9.752;2022-07-01T06:05:28;100882.00;;;27.37;38.84
16613;BME280;8419;52.358;9.752;2022-07-01T06:08:14;100883.00;;;27.30;38.99
16613;BME280;8419;52.358;9.752;2022-07-01T06:11:00;100899.00;;;27.32;39.03
16613;BME280;8419;52.358;9.752;2022-07-01T06:13:45;100885.00;;;27.38;38.80
16613;BME280;8419;52.358;9.752;2022-07-01T06:16:30;100877.00;;;27.42;38.68
16613;BME280;8419;52.358;9.752;2022-07-01T06:19:16;100875.00;;;27.48;38.51
16613;BME280;8419;52.358;9.752;2022-07-01T06:22:01;100872.00;;;27.47;38.47
16613;BME280;8419;52.358;9.752;2022-07-01T06:24:47;100852.00;;;27.52;38.26
16613;BME280;8419;52.358;9.752;2022-07-01T06:27:38;100857.00;;;27.54;38.32
16613;BME280;8419;52.358;9.752;2022-07-01T06:30:24;100862.00;;;27.57;38.34
16613;BME280;8419;52.358;9.752;2022-07-01T06:33:11;100845.00;;;27.68;38.20
16613;BME280;8419;52.358;9.752;2022-07-01T06:35:57;100844.00;;;27.66;38.14
16613;BME280;8419;52.358;9.752;2022-07-01T06:38:42;100853.00;;;27.63;38.21
16613;BME280;8419;52.358;9.752;2022-07-01T06:41:28;100858.00;;;27.64;38.12
16613;BME280;8419;52.358;9.752;2022-07-01T06:44:14;100857.00;;;27.57;38.04
16613;BME280;8419;52.358;9.752;2022-07-01T06:46:59;100866.00;;;27.53;38.04
16613;BME280;8419;52.358;9.752;2022-07-01T06:49:44;100872.00;;;27.53;38.09
16613;BME280;8419;52.358;9.752;2022-07-01T06:52:30;100875.00;;;27.66;37.97
16613;BME280;8419;52.358;9.752;2022-07-01T06:55:15;100863.00;;;27.87;37.84
16613;BME280;8419;52.358;9.752;2022-07-01T06:58:03;100893.00;;;28.05;37.50
16613;BME280;8419;52.358;9.752;2022-07-01T07:00:50;100896.00;;;27.90;37.61
16613;BME280;8419;52.358;9.752;2022-07-01T07:03:36;100894.00;;;27.91;37.54
16613;BME280;8419;52.358;9.752;2022-07-01T07:06:21;100889.00;;;27.83;37.47
16613;BME280;8419;52.358;9.752;2022-07-01T07:09:07;100894.00;;;27.66;37.62
16613;BME280;8419;52.358;9.752;2022-07-01T07:11:53;100901.00;;;27.56;37.80
16613;BME280;8419;52.358;9.752;2022-07-01T07:14:38;100901.00;;;27.58;37.83
16613;BME280;8419;52.358;9.752;2022-07-01T07:17:23;100884.00;;;27.44;38.06
16613;BME280;8419;52.358;9.752;2022-07-01T07:20:10;100881.00;;;27.39;38.14
16613;BME280;8419;52.358;9.752;2022-07-01T07:22:56;100896.00;;;26.98;39.10
16613;BME280;8419;52.358;9.752;2022-07-01T07:25:41;100896.00;;;26.75;39.63
16613;BME280;8419;52.358;9.752;2022-07-01T07:28:27;100900.00;;;26.74;39.84
16613;BME280;8419;52.358;9.752;2022-07-01T07:31:12;100917.00;;;26.50;40.44
16613;BME280;8419;52.358;9.752;2022-07-01T07:33:57;100936.00;;;26.34;40.82
16613;BME280;8419;52.358;9.752;2022-07-01T07:36:43;100959.00;;;26.23;41.29
16613;BME280;8419;52.358;9.752;2022-07-01T07:39:28;100955.00;;;26.11;41.74
16613;BME280;8419;52.358;9.752;2022-07-01T07:42:13;100964.00;;;26.07;41.92
16613;BME280;8419;52.358;9.752;2022-07-01T07:44:58;100973.00;;;25.96;42.15
16613;BME280;8419;52.358;9.752;2022-07-01T07:47:45;100980.00;;;26.04;42.07
16613;BME280;8419;52.358;9.752;2022-07-01T07:50:33;100987.00;;;26.12;42.05
16613;BME280;8419;52.358;9.752;2022-07-01T07:53:19;100996.00;;;25.97;42.40
16613;BME280;8419;52.358;9.752;2022-07-01T07:56:05;101005.00;;;25.94;42.53
16613;BME280;8419;52.358;9.752;2022-07-01T07:58:50;100998.00;;;26.05;42.49
16613;BME280;8419;52.358;9.752;2022-07-01T08:01:38;100986.00;;;26.15;42.45
16613;BME280;8419;52.358;9.752;2022-07-01T08:04:23;100979.00;;;26.26;42.27
16613;BME280;8419;52.358;9.752;2022-07-01T08:07:08;100977.00;;;26.47;41.98
16613;BME280;8419;52.358;9.752;2022-07-01T08:09:55;100987.00;;;26.65;41.81
16613;BME280;8419;52.358;9.752;2022-07-01T08:12:41;101001.00;;;26.81;41.54
16613;BME280;8419;52.358;9.752;2022-07-01T08:15:26;101000.00;;;26.81;41.61
16613;BME280;8419;52.358;9.752;2022-07-01T08:18:11;101006.00;;;26.81;41.33
16613;BME280;8419;52.358;9.752;2022-07-01T08:20:57;101003.00;;;26.76;41.35
16613;BME280;8419;52.358;9.752;2022-07-01T08:23:43;100990.00;;;26.70;41.05
16613;BME280;8419;52.358;9.752;2022-07-01T08:26:28;100979.00;;;26.79;40.91
16613;BME280;8419;52.358;9.752;2022-07-01T08:29:14;100984.00;;;26.93;40.86
16613;BME280;8419;52.358;9.752;2022-07-01T08:31:59;100978.00;;;27.01;40.37
16613;BME280;8419;52.358;9.752;2022-07-01T08:34:45;100988.00;;;26.96;40.47
16613;BME280;8419;52.358;9.752;2022-07-01T08:37:31;100978.00;;;27.05;40.04
16613;BME280;8419;52.358;9.752;2022-07-01T08:40:17;100984.00;;;27.13;39.76
16613;BME280;8419;52.358;9.752;2022-07-01T08:43:05;100981.00;;;27.02;39.89
16613;BME280;8419;52.358;9.752;2022-07-01T08:45:52;100981.00;;;27.27;39.38
16613;BME280;8419;52.358;9.752;2022-07-01T08:48:42;100993.00;;;27.41;39.04
16613;BME280;8419;52.358;9.752;2022-07-01T08:51:27;100985.00;;;27.43;38.86
16613;BME280;8419;52.358;9.752;2022-07-01T08:54:12;100994.00;;;27.50;38.56
16613;BME280;8419;52.358;9.752;2022-07-01T08:56:58;100996.00;;;27.46;38.69
16613;BME280;8419;52.358;9.752;2022-07-01T08:59:43;100998.00;;;27.54;38.69
16613;BME280;8419;52.358;9.752;2022-07-01T09:02:49;101003.00;;;27.54;38.79
16613;BME280;8419;52.358;9.752;2022-07-01T09:05:36;101003.00;;;27.62;38.59
16613;BME280;8419;52.358;9.752;2022-07-01T09:08:27;101013.00;;;27.66;38.49
16613;BME280;8419;52.358;9.752;2022-07-01T09:11:15;101020.00;;;27.37;39.00
16613;BME280;8419;52.358;9.752;2022-07-01T09:14:08;101022.00;;;27.29;39.21
16613;BME280;8419;52.358;9.752;2022-07-01T09:16:56;101038.00;;;27.36;39.10
16613;BME280;8419;52.358;9.752;2022-07-01T09:19:49;101032.00;;;27.44;38.83
16613;BME280;8419;52.358;9.752;2022-07-01T09:22:35;101038.00;;;27.49;38.71
16613;BME280;8419;52.358;9.752;2022-07-01T09:25:27;101042.00;;;27.79;38.34
16613;BME280;8419;52.358;9.752;2022-07-01T09:28:16;101045.00;;;27.99;37.86
16613;BME280;8419;52.358;9.752;2022-07-01T09:31:02;101066.00;;;27.95;37.76
16613;BME280;8419;52.358;9.752;2022-07-01T09:34:02;101052.00;;;28.01;37.53
16613;BME280;8419;52.358;9.752;2022-07-01T09:36:53;101055.00;;;28.00;37.42
16613;BME280;8419;52.358;9.752;2022-07-01T09:39:44;101053.00;;;28.07;37.35
16613;BME280;8419;52.358;9.752;2022-07-01T09:42:29;101051.00;;;28.12;37.10
16613;BME280;8419;52.358;9.752;2022-07-01T09:45:16;101054.00;;;28.09;37.07
16613;BME280;8419;52.358;9.752;2022-07-01T09:48:04;101060.00;;;28.07;36.97
16613;BME280;8419;52.358;9.752;2022-07-01T09:50:50;101061.00;;;28.08;36.75
16613;BME280;8419;52.358;9.752;2022-07-01T09:53:36;101067.00;;;28.02;36.66
16613;BME280;8419;52.358;9.752;2022-07-01T09:56:21;101071.00;;;27.95;36.71
16613;BME280;8419;52.358;9.752;2022-07-01T09:59:07;101075.00;;;27.97;36.68
16613;BME280;8419;52.358;9.752;2022-07-01T10:01:52;101068.00;;;27.99;36.64
16613;BME280;8419;52.358;9.752;2022-07-01T10:04:39;101063.00;;;28.03;36.59
16613;BME280;8419;52.358;9.752;2022-07-01T10:07:37;101067.00;;;28.17;36.33
16613;BME280;8419;52.358;9.752;2022-07-01T10:10:38;101066.00;;;28.21;36.13
16613;BME280;8419;52.358;9.752;2022-07-01T10:13:27;101076.00;;;28.32;36.06
16613;BME280;8419;52.358;9.752;2022-07-01T10:16:13;101081.00;;;28.28;36.00
16613;BME280;8419;52.358;9.752;2022-07-01T10:18:59;101082.00;;;28.40;35.88
16613;BME280;8419;52.358;9.752;2022-07-01T10:21:51;101083.00;;;28.36;35.83
16613;BME280;8419;52.358;9.752;2022-07-01T10:24:40;101085.00;;;28.29;36.00
16613;BME280;8419;52.358;9.752;2022-07-01T10:27:25;101082.00;;;28.37;35.95
16613;BME280;8419;52.358;9.752;2022-07-01T10:30:15;101082.00;;;28.53;35.61
16613;BME280;8419;52.358;9.752;2022-07-01T10:33:04;101075.00;;;28.23;35.97
16613;BME280;8419;52.358;9.752;2022-07-01T10:35:52;101080.00;;;28.13;35.99
16613;BME280;8419;52.358;9.752;2022-07-01T10:39:14;101086.00;;;28.25;35.93
16613;BME280;8419;52.358;9.752;2022-07-01T10:42:03;101076.00;;;28.51;35.74
16613;BME280;8419;52.358;9.752;2022-07-01T10:45:01;101082.00;;;28.71;35.57
16613;BME280;8419;52.358;9.752;2022-07-01T10:47:48;101068.00;;;29.18;34.95
16613;BME280;8419;52.358;9.752;2022-07-01T10:51:02;101071.00;;;29.53;34.37
16613;BME280;8419;52.358;9.752;2022-07-01T10:53:48;101060.00;;;29.70;34.09
16613;BME280;8419;52.358;9.752;2022-07-01T10:56:39;101066.00;;;29.81;33.95
16613;BME280;8419;52.358;9.752;2022-07-01T10:59:27;101062.00;;;29.93;33.72
16613;BME280;8419;52.358;9.752;2022-07-01T11:02:14;101056.00;;;29.96;33.58
16613;BME280;8419;52.358;9.752;2022-07-01T11:05:07;101062.00;;;30.08;33.44
16613;BME280;8419;52.358;9.752;2022-07-01T11:07:55;101061.00;;;30.07;33.39
16613;BME280;8419;52.358;9.752;2022-07-01T11:10:42;101065.00;;;30.20;33.09
16613;BME280;8419;52.358;9.752;2022-07-01T11:13:27;101062.00;;;30.31;32.86
16613;BME280;8419;52.358;9.752;2022-07-01T11:16:14;101070.00;;;30.52;32.73
16613;BME280;8419;52.358;9.752;2022-07-01T11:19:00;101071.00;;;30.40;32.60
16613;BME280;8419;52.358;9.752;2022-07-01T11:21:49;101064.00;;;30.16;32.86
16613;BME280;8419;52.358;9.752;2022-07-01T11:24:34;101071.00;;;29.89;33.11
16613;BME280;8419;52.358;9.752;2022-07-01T11:27:19;101076.00;;;29.67;33.28
16613;BME280;8419;52.358;9.752;2022-07-01T11:30:10;101076.00;;;29.51;33.37
16613;BME280;8419;52.358;9.752;2022-07-01T11:32:58;101072.00;;;29.50;33.22
16613;BME280;8419;52.358;9.752;2022-07-01T11:35:44;101071.00;;;29.35;33.48
16613;BME280;8419;52.358;9.752;2022-07-01T11:38:48;101067.00;;;29.29;33.48
16613;BME280;8419;52.358;9.752;2022-07-01T11:41:54;101071.00;;;29.15;33.66
16613;BME280;8419;52.358;9.752;2022-07-01T11:44:41;101074.00;;;29.02;33.54
16613;BME280;8419;52.358;9.752;2022-07-01T11:47:27;101076.00;;;29.13;33.44
16613;BME280;8419;52.358;9.752;2022-07-01T11:50:13;101085.00;;;29.34;32.98
16613;BME280;8419;52.358;9.752;2022-07-01T11:53:00;101099.00;;;29.27;32.79
16613;BME280;8419;52.358;9.752;2022-07-01T11:55:46;101089.00;;;29.26;32.71
16613;BME280;8419;52.358;9.752;2022-07-01T11:58:43;101091.00;;;29.34;32.50
16613;BME280;8419;52.358;9.752;2022-07-01T12:01:32;101088.00;;;29.28;32.20
16613;BME280;8419;52.358;9.752;2022-07-01T12:04:18;101090.00;;;29.30;32.20
16613;BME280;8419;52.358;9.752;2022-07-01T12:07:06;101083.00;;;29.26;32.05
16613;BME280;8419;52.358;9.752;2022-07-01T12:09:52;101093.00;;;29.28;32.17
16613;BME280;8419;52.358;9.752;2022-07-01T12:12:38;101090.00;;;29.23;32.11
16613;BME280;8419;52.358;9.752;2022-07-01T12:15:26;101109.00;;;29.09;32.39
16613;BME280;8419;52.358;9.752;2022-07-01T12:18:12;101120.00;;;29.17;32.38
16613;BME280;8419;52.358;9.752;2022-07-01T12:21:00;101127.00;;;29.29;31.87
16613;BME280;8419;52.358;9.752;2022-07-01T12:24:04;101129.00;;;29.51;31.42
16613;BME280;8419;52.358;9.752;2022-07-01T12:26:52;101130.00;;;29.70;31.28
16613;BME280;8419;52.358;9.752;2022-07-01T12:29:53;101135.00;;;29.81;31.20
16613;BME280;8419;52.358;9.752;2022-07-01T12:32:40;101134.00;;;29.92;31.06
16613;BME280;8419;52.358;9.752;2022-07-01T12:35:28;101131.00;;;29.64;31.60
16613;BME280;8419;52.358;9.752;2022-07-01T12:38:19;101133.00;;;29.83;31.34
16613;BME280;8419;52.358;9.752;2022-07-01T12:41:27;101135.00;;;29.75;31.52
16613;BME280;8419;52.358;9.752;2022-07-01T12:44:21;101128.00;;;29.73;31.52
16613;BME280;8419;52.358;9.752;2022-07-01T12:47:18;101123.00;;;29.61;31.74
16613;BME280;8419;52.358;9.752;2022-07-01T12:50:17;101116.00;;;29.55;31.74
16613;BME280;8419;52.358;9.752;2022-07-01T12:53:07;101113.00;;;29.73;31.58
16613;BME280;8419;52.358;9.752;2022-07-01T12:55:54;101106.00;;;29.72;31.47
16613;BME280;8419;52.358;9.752;2022-07-01T12:58:40;101110.00;;;29.39;32.12
16613;BME280;8419;52.358;9.752;2022-07-01T13:01:26;101124.00;;;29.24;32.34
16613;BME280;8419;52.358;9.752;2022-07-01T13:04:11;101113.00;;;29.24;32.30
16613;BME280;8419;52.358;9.752;2022-07-01T13:06:56;101114.00;;;29.15;32.34
16613;BME280;8419;52.358;9.752;2022-07-01T13:09:43;101103.00;;;28.92;32.59
16613;BME280;8419;52.358;9.752;2022-07-01T13:12:29;101110.00;;;29.07;32.58
16613;BME280;8419;52.358;9.752;2022-07-01T13:15:17;101116.00;;;29.52;31.94
16613;BME280;8419;52.358;9.752;2022-07-01T13:18:03;101109.00;;;29.92;31.41
16613;BME280;8419;52.358;9.752;2022-07-01T13:20:49;101107.00;;;30.10;30.86
16613;BME280;8419;52.358;9.752;2022-07-01T13:23:35;101105.00;;;30.04;30.71
16613;BME280;8419;52.358;9.752;2022-07-01T13:26:20;101108.00;;;30.26;30.66
16613;BME280;8419;52.358;9.752;2022-07-01T13:29:07;101110.00;;;30.53;30.41
16613;BME280;8419;52.358;9.752;2022-07-01T13:31:52;101098.00;;;30.70;29.97
16613;BME280;8419;52.358;9.752;2022-07-01T13:34:38;101105.00;;;30.65;29.88
16613;BME280;8419;52.358;9.752;2022-07-01T13:37:24;101107.00;;;30.87;29.63
16613;BME280;8419;52.358;9.752;2022-07-01T13:40:09;101111.00;;;31.03;29.44
16613;BME280;8419;52.358;9.752;2022-07-01T13:42:55;101114.00;;;31.11;29.20
16613;BME280;8419;52.358;9.752;2022-07-01T13:45:41;101103.00;;;31.15;28.91
16613;BME280;8419;52.358;9.752;2022-07-01T13:48:26;101106.00;;;31.06;28.99
16613;BME280;8419;52.358;9.752;2022-07-01T13:51:13;101109.00;;;31.18;28.82
16613;BME280;8419;52.358;9.752;2022-07-01T13:53:58;101113.00;;;31.04;28.95
16613;BME280;8419;52.358;9.752;2022-07-01T13:56:44;101115.00;;;31.07;28.95
16613;BME280;8419;52.358;9.752;2022-07-01T13:59:30;101124.00;;;31.30;28.91
16613;BME280;8419;52.358;9.752;2022-07-01T14:02:15;101123.00;;;31.35;28.72
16613;BME280;8419;52.358;9.752;2022-07-01T14:05:04;101121.00;;;31.45;28.52
16613;BME280;8419;52.358;9.752;2022-07-01T14:07:50;101124.00;;;31.37;28.38
16613;BME280;8419;52.358;9.752;2022-07-01T14:10:36;101116.00;;;31.25;28.24
16613;BME280;8419;52.358;9.752;2022-07-01T14:13:22;101136.00;;;31.41;27.87
16613;BME280;8419;52.358;9.752;2022-07-01T14:16:09;101138.00;;;31.50;27.70
16613;BME280;8419;52.358;9.752;2022-07-01T14:18:55;101150.00;;;31.54;27.64
16613;BME280;8419;52.358;9.752;2022-07-01T14:21:41;101146.00;;;31.34;27.53
16613;BME280;8419;52.358;9.752;2022-07-01T14:24:26;101135.00;;;31.14;27.51
16613;BME280;8419;52.358;9.752;2022-07-01T14:27:12;101144.00;;;31.13;27.27
16613;BME280;8419;52.358;9.752;2022-07-01T14:29:59;101126.00;;;31.10;27.11
16613;BME280;8419;52.358;9.752;2022-07-01T14:32:44;101137.00;;;31.02;27.23
16613;BME280;8419;52.358;9.752;2022-07-01T14:35:30;101138.00;;;31.00;27.21
16613;BME280;8419;52.358;9.752;2022-07-01T14:38:18;101155.00;;;31.09;27.17
16613;BME280;8419;52.358;9.752;2022-07-01T14:41:05;101151.00;;;31.30;27.15
16613;BME280;8419;52.358;9.752;2022-07-01T14:43:50;101163.00;;;31.23;27.19
16613;BME280;8419;52.358;9.752;2022-07-01T14:46:36;101163.00;;;31.08;27.02